createdAt,value
2023-05-18T00:02:51.007Z,3.25
2023-05-18T00:07:54.156Z,3.30
2023-05-18T00:12:57.040Z,3.75
2023-05-18T00:17:59.922Z,3.90
2023-05-18T00:23:02.785Z,3.55
2023-05-18T00:28:05.257Z,3.55
2023-05-18T00:33:08.364Z,3.80
2023-05-18T00:38:12.991Z,3.53
2023-05-18T00:43:15.268Z,3.83
2023-05-18T00:48:18.779Z,3.55
2023-05-18T00:53:22.202Z,3.50
2023-05-18T00:58:25.716Z,3.40
2023-05-18T01:03:30.441Z,3.92
2023-05-18T01:08:34.456Z,3.75
2023-05-18T01:13:49.126Z,4.13
2023-05-18T01:19:02.040Z,3.20
2023-05-18T01:24:36.407Z,3.05
2023-05-18T01:29:39.212Z,3.55
2023-05-18T01:34:41.781Z,3.65
2023-05-18T01:39:44.188Z,3.08
2023-05-18T01:44:59.229Z,3.35
2023-05-18T01:50:26.936Z,3.55
2023-05-18T01:55:32.258Z,3.17
2023-05-18T02:00:36.652Z,3.78
2023-05-18T02:10:44.200Z,3.30
2023-05-18T02:15:47.301Z,3.60
2023-05-18T02:20:50.003Z,3.30
2023-05-18T02:25:55.619Z,3.70
2023-05-18T02:31:12.562Z,3.80
2023-05-18T02:36:18.815Z,4.20
2023-05-18T02:41:21.908Z,4.30
2023-05-18T02:46:25.100Z,4.63
2023-05-18T02:51:28.758Z,6.05
2023-05-18T02:56:33.007Z,3.92
2023-05-18T03:01:43.847Z,4.50
2023-05-18T03:06:47.536Z,5.00
2023-05-18T03:11:52.639Z,5.00
2023-05-18T03:16:58.181Z,4.22
2023-05-18T03:22:01.671Z,5.30
2023-05-18T03:27:06.214Z,5.25
2023-05-18T03:32:17.221Z,5.88
2023-05-18T03:37:21.945Z,4.57
2023-05-18T03:42:25.917Z,4.55
2023-05-18T03:47:30.181Z,5.63
2023-05-18T03:52:34.504Z,5.13
2023-05-18T03:57:37.623Z,4.72
2023-05-18T04:02:40.625Z,6.00
2023-05-18T04:07:46.934Z,6.90
2023-05-18T04:12:49.726Z,6.28
2023-05-18T04:17:54.084Z,7.28
2023-05-18T04:23:00.447Z,6.25
2023-05-18T04:28:04.443Z,4.47
2023-05-18T04:33:07.539Z,4.20
2023-05-18T04:38:11.592Z,4.20
2023-05-18T04:43:14.698Z,6.00
2023-05-18T04:48:20.593Z,3.80
2023-05-18T04:53:24.596Z,4.63
2023-05-18T04:58:29.897Z,4.75
2023-05-18T05:03:34.594Z,3.97
2023-05-18T05:08:38.358Z,4.05
2023-05-18T05:13:41.965Z,5.82
2023-05-18T05:18:45.919Z,4.45
2023-05-18T05:23:50.625Z,4.63
2023-05-18T05:28:54.965Z,10.75
2023-05-18T05:33:57.941Z,5.65
2023-05-18T05:39:01.846Z,5.25
2023-05-18T05:44:15.523Z,6.05
2023-05-18T05:49:51.052Z,4.13
2023-05-18T05:54:55.187Z,5.10
2023-05-18T05:59:59.603Z,5.03
2023-05-18T06:10:06.973Z,8.60
2023-05-18T06:15:15.647Z,7.90
2023-05-18T06:20:18.216Z,6.50
2023-05-18T06:25:21.235Z,8.75
2023-05-18T06:30:47.394Z,8.75
2023-05-18T06:36:10.038Z,9.20
2023-05-18T06:41:12.501Z,5.47
2023-05-18T06:46:26.886Z,6.40
2023-05-18T06:51:38.226Z,8.90
2023-05-18T06:56:42.261Z,8.35
2023-05-18T07:01:45.565Z,5.97
2023-05-18T07:06:52.498Z,5.03
2023-05-18T07:12:04.757Z,5.75
2023-05-18T07:17:13.421Z,7.40
2023-05-18T07:22:16.334Z,6.05
2023-05-18T07:27:22.354Z,5.30
2023-05-18T07:32:24.787Z,4.97
2023-05-18T07:37:28.195Z,6.28
2023-05-18T07:42:31.501Z,6.00
2023-05-18T07:47:34.667Z,5.68
2023-05-18T07:52:39.328Z,6.13
2023-05-18T07:57:42.908Z,6.75
2023-05-18T08:02:46.897Z,7.03
2023-05-18T08:07:50.750Z,6.78
2023-05-18T08:13:55.512Z,7.95
2023-05-18T08:18:59.921Z,8.02
2023-05-18T08:24:05.292Z,7.95
2023-05-18T08:29:12.214Z,7.43
2023-05-18T08:34:15.735Z,7.65
2023-05-18T08:40:46.389Z,7.38
2023-05-18T08:45:56.092Z,7.90
2023-05-18T08:51:01.685Z,7.63
2023-05-18T08:56:06.395Z,7.63
2023-05-18T09:01:10.055Z,7.35
2023-05-18T09:06:14.761Z,6.78
2023-05-18T09:11:19.941Z,7.10
2023-05-18T09:16:22.755Z,7.03
2023-05-18T09:28:07.363Z,6.50
2023-05-18T09:33:18.296Z,9.27
2023-05-18T09:38:24.172Z,5.45
2023-05-18T09:43:28.349Z,5.90
2023-05-18T09:48:50.164Z,5.50
2023-05-18T09:53:59.347Z,5.65
2023-05-18T10:04:20.842Z,6.20
2023-05-18T10:09:24.667Z,7.03
2023-05-18T10:14:31.493Z,5.55
2023-05-18T10:19:36.487Z,6.00
2023-05-18T10:24:41.800Z,5.45
2023-05-18T10:29:45.991Z,5.38
2023-05-18T10:34:56.317Z,4.93
2023-05-18T10:40:01.037Z,4.93
2023-05-18T10:45:10.327Z,5.80
2023-05-18T10:50:17.560Z,4.80
2023-05-18T10:55:21.317Z,4.78
2023-05-18T11:00:24.172Z,5.30
2023-05-18T11:05:27.383Z,4.75
2023-05-18T11:10:36.979Z,5.82
2023-05-18T11:15:52.290Z,4.50
2023-05-18T11:22:13.873Z,4.38
2023-05-18T11:27:17.524Z,5.03
2023-05-18T11:33:37.112Z,5.18
2023-05-18T11:38:55.150Z,5.20
2023-05-18T11:44:17.141Z,5.00
2023-05-18T11:49:24.076Z,5.90
2023-05-18T11:54:53.733Z,5.20
2023-05-18T11:59:59.313Z,5.65
2023-05-18T12:05:07.320Z,5.18
2023-05-18T12:10:13.262Z,8.55
2023-05-18T12:15:17.147Z,6.80
2023-05-18T12:20:22.602Z,6.95
2023-05-18T12:25:28.360Z,5.53
2023-05-18T12:30:40.578Z,8.60
2023-05-18T12:35:43.124Z,5.18
2023-05-18T12:40:50.537Z,6.13
2023-05-18T12:45:54.179Z,5.80
2023-05-18T12:50:57.176Z,6.90
2023-05-18T12:56:00.209Z,6.05
2023-05-18T13:01:09.965Z,4.88
2023-05-18T13:06:12.331Z,5.05
2023-05-18T13:11:16.232Z,5.45
2023-05-18T13:21:23.117Z,5.28
2023-05-18T13:26:25.985Z,4.95
2023-05-18T13:31:31.686Z,5.30
2023-05-18T13:36:36.994Z,5.10
2023-05-18T13:41:39.352Z,5.90
2023-05-18T13:46:42.106Z,5.47
2023-05-18T13:51:45.889Z,5.85
2023-05-18T13:56:49.229Z,5.68
2023-05-18T14:01:52.211Z,5.10
2023-05-18T14:06:56.136Z,5.25
2023-05-18T14:12:00.225Z,4.65
2023-05-18T14:17:03.746Z,4.68
2023-05-18T14:22:07.901Z,4.35
2023-05-18T14:27:11.640Z,4.45
2023-05-18T14:32:14.572Z,4.45
2023-05-18T14:37:16.794Z,4.50
2023-05-18T14:42:20.851Z,5.43
2023-05-18T14:47:23.923Z,4.45
2023-05-18T14:52:27.071Z,4.50
2023-05-18T14:57:30.192Z,4.72
2023-05-18T15:02:32.928Z,5.30
2023-05-18T15:07:36.771Z,4.40
2023-05-18T15:12:39.461Z,5.22
2023-05-18T15:17:43.202Z,5.32
2023-05-18T15:22:45.634Z,5.53
2023-05-18T15:27:49.263Z,5.28
2023-05-18T15:32:53.006Z,3.63
2023-05-18T15:37:56.591Z,3.20
2023-05-18T15:42:59.023Z,4.00
2023-05-18T15:48:01.320Z,3.25
2023-05-18T15:53:04.912Z,7.20
2023-05-18T15:58:07.842Z,4.90
2023-05-18T16:03:11.345Z,4.82
2023-05-18T16:08:14.070Z,6.53
2023-05-18T16:13:17.469Z,7.32
2023-05-18T16:18:19.845Z,7.05
2023-05-18T16:23:24.092Z,7.82
2023-05-18T16:28:26.809Z,5.90
2023-05-18T16:33:30.110Z,5.85
2023-05-18T16:38:36.001Z,6.82
2023-05-18T16:43:38.334Z,6.32
2023-05-18T16:48:40.659Z,6.22
2023-05-18T16:53:43.237Z,6.10
2023-05-18T16:58:52.366Z,7.25
2023-05-18T17:03:54.821Z,7.45
2023-05-18T17:08:58.438Z,7.32
2023-05-18T17:14:01.750Z,7.35
2023-05-18T17:19:04.578Z,6.32
2023-05-18T17:24:07.842Z,6.90
2023-05-18T17:29:13.266Z,6.55
2023-05-18T17:34:17.264Z,7.45
2023-05-18T17:39:20.294Z,6.95
2023-05-18T17:44:22.646Z,6.53
2023-05-18T17:49:25.642Z,7.28
2023-05-18T17:54:27.965Z,5.88
2023-05-18T17:59:30.415Z,6.68
2023-05-18T18:04:33.088Z,11.10
2023-05-18T18:09:38.065Z,11.25
2023-05-18T18:14:41.081Z,9.32
2023-05-18T18:19:45.293Z,6.47
2023-05-18T18:24:48.152Z,6.40
2023-05-18T18:29:50.982Z,4.82
2023-05-18T18:34:53.473Z,4.72
2023-05-18T18:39:55.877Z,6.50
2023-05-18T18:44:58.681Z,8.32
2023-05-18T18:50:01.301Z,6.40
2023-05-18T18:55:05.146Z,5.15
2023-05-18T19:00:11.238Z,4.18
2023-05-18T19:05:14.371Z,5.15
2023-05-18T19:10:17.015Z,6.20
2023-05-18T19:15:21.663Z,7.70
2023-05-18T19:20:24.358Z,7.28
2023-05-18T19:25:26.816Z,5.72
2023-05-18T19:30:29.271Z,4.93
2023-05-18T19:35:32.827Z,4.63
2023-05-18T19:40:35.942Z,5.43
2023-05-18T19:45:38.490Z,5.22
2023-05-18T19:50:42.032Z,5.65
2023-05-18T19:55:45.200Z,6.97
2023-05-18T20:00:48.942Z,5.80
2023-05-18T20:05:51.340Z,6.13
2023-05-18T20:10:55.061Z,5.53
2023-05-18T20:16:03.942Z,5.20
2023-05-18T20:21:07.739Z,5.78
2023-05-18T20:26:10.894Z,5.65
2023-05-18T20:31:14.916Z,4.57
2023-05-18T20:36:17.563Z,4.63
2023-05-18T20:41:21.706Z,6.07
2023-05-18T20:46:25.135Z,6.32
2023-05-18T20:51:31.516Z,7.38
2023-05-18T20:56:36.209Z,7.00
2023-05-18T21:01:39.922Z,5.90
2023-05-18T21:06:44.296Z,5.72
2023-05-18T21:11:46.798Z,5.25
2023-05-18T21:16:49.156Z,6.38
2023-05-18T21:21:52.460Z,4.18
2023-05-18T21:26:56.071Z,5.20
2023-05-18T21:31:59.108Z,4.20
2023-05-18T21:37:01.705Z,3.90
2023-05-18T21:42:05.295Z,4.32
2023-05-18T21:47:08.945Z,4.18
2023-05-18T21:52:15.522Z,3.45
2023-05-18T21:57:17.958Z,4.18
2023-05-18T22:02:21.021Z,3.95
2023-05-18T22:07:23.971Z,3.90
2023-05-18T22:12:27.495Z,3.58
2023-05-18T22:17:29.938Z,3.40
2023-05-18T22:22:33.480Z,3.30
2023-05-18T22:27:38.985Z,3.10
2023-05-18T22:32:41.610Z,4.45
2023-05-18T22:37:43.961Z,3.80
2023-05-18T22:42:47.385Z,4.32
2023-05-18T22:47:49.893Z,4.40
2023-05-18T22:52:52.396Z,3.10
2023-05-18T22:57:55.621Z,2.88
2023-05-18T23:02:58.063Z,3.97
2023-05-18T23:08:02.938Z,3.47
2023-05-18T23:13:06.340Z,4.10
2023-05-18T23:18:09.417Z,4.20
2023-05-18T23:23:11.974Z,3.92
2023-05-18T23:28:14.262Z,4.38
2023-05-18T23:33:17.848Z,5.63
2023-05-18T23:38:23.542Z,6.28
2023-05-18T23:43:26.279Z,6.22
2023-05-18T23:48:30.044Z,7.03
2023-05-18T23:53:33.076Z,7.97
2023-05-18T23:58:35.881Z,7.53
